createdAt,value
2018-08-30T00:00:39.798Z,97351.66
2018-08-30T00:03:07.418Z,97356.85
2018-08-30T00:05:35.039Z,97364.96
2018-08-30T00:08:02.788Z,97359.00
2018-08-30T00:10:30.371Z,97355.84
2018-08-30T00:12:57.964Z,97358.76
2018-08-30T00:15:25.688Z,97366.31
2018-08-30T00:17:53.332Z,97363.05
2018-08-30T00:20:21.000Z,97369.81
2018-08-30T00:22:48.632Z,97364.96
2018-08-30T00:25:16.336Z,97360.70
2018-08-30T00:27:43.996Z,97367.45
2018-08-30T00:30:11.613Z,97360.70
2018-08-30T00:32:39.200Z,97357.98
2018-08-30T00:35:06.888Z,97360.45
2018-08-30T00:37:34.533Z,97369.02
2018-08-30T00:40:02.164Z,97357.98
2018-08-30T00:42:29.760Z,97363.16
2018-08-30T00:44:57.480Z,97357.53
2018-08-30T00:47:25.092Z,97361.80
2018-08-30T00:49:52.716Z,97359.09
2018-08-30T00:52:20.702Z,97373.20
2018-08-30T00:54:48.399Z,97371.05
2018-08-30T00:57:16.489Z,97367.80
2018-08-30T00:59:44.125Z,97369.70
2018-08-30T01:02:11.736Z,97369.14
2018-08-30T01:04:39.339Z,97377.26
2018-08-30T01:07:06.947Z,97370.84
2018-08-30T01:09:34.508Z,97369.70
2018-08-30T01:12:02.144Z,97373.75
2018-08-30T01:14:29.780Z,97377.02
2018-08-30T01:16:57.429Z,97381.41
2018-08-30T01:19:25.028Z,97385.70
2018-08-30T01:21:52.608Z,97383.90
2018-08-30T01:24:20.377Z,97385.80
2018-08-30T01:26:48.028Z,97388.30
2018-08-30T01:29:15.596Z,97382.33
2018-08-30T01:31:43.184Z,97382.33
2018-08-30T01:34:12.748Z,97382.33
2018-08-30T01:36:41.733Z,97387.73
2018-08-30T01:39:10.581Z,97381.53
2018-08-30T01:41:38.443Z,97389.64
2018-08-30T01:44:06.122Z,97380.19
2018-08-30T01:46:33.809Z,97377.27
2018-08-30T01:49:01.720Z,97377.48
2018-08-30T01:51:29.437Z,97377.27
2018-08-30T01:53:57.143Z,97375.12
2018-08-30T01:56:24.933Z,97378.96
2018-08-30T01:58:52.630Z,97383.23
2018-08-30T02:01:20.399Z,97388.08
2018-08-30T02:03:48.581Z,97387.28
2018-08-30T02:06:16.254Z,97387.87
2018-08-30T02:08:43.957Z,97387.07
2018-08-30T02:11:11.734Z,97381.66
2018-08-30T02:13:39.450Z,97383.44
2018-08-30T02:16:07.553Z,97385.93
2018-08-30T02:18:35.260Z,97384.80
2018-08-30T02:21:02.966Z,97384.80
2018-08-30T02:23:30.707Z,97382.67
2018-08-30T02:25:58.518Z,97385.59
2018-08-30T02:28:26.181Z,97391.34
2018-08-30T02:30:53.918Z,97395.61
2018-08-30T02:33:21.642Z,97392.13
2018-08-30T02:35:49.311Z,97394.04
2018-08-30T02:38:17.028Z,97400.03
2018-08-30T02:40:44.720Z,97392.48
2018-08-30T02:43:12.492Z,97390.33
2018-08-30T02:45:40.136Z,97396.19
2018-08-30T02:48:08.312Z,97393.83
2018-08-30T02:50:36.116Z,97394.63
2018-08-30T02:53:03.973Z,97394.97
2018-08-30T02:55:31.834Z,97394.72
2018-08-30T02:57:59.513Z,97397.42
2018-08-30T03:00:27.177Z,97396.88
2018-08-30T03:02:54.814Z,97392.27
2018-08-30T03:05:22.430Z,97396.31
2018-08-30T03:07:50.053Z,97402.83
2018-08-30T03:10:17.734Z,97406.33
2018-08-30T03:12:45.391Z,97402.28
2018-08-30T03:15:14.212Z,97411.19
2018-08-30T03:17:41.883Z,97411.28
2018-08-30T03:20:10.257Z,97412.08
2018-08-30T03:22:39.040Z,97413.64
2018-08-30T03:25:06.822Z,97419.39
2018-08-30T03:27:34.481Z,97417.27
2018-08-30T03:30:02.618Z,97415.12
2018-08-30T03:32:30.405Z,97414.91
2018-08-30T03:34:58.745Z,97417.95
2018-08-30T03:37:26.977Z,97412.55
2018-08-30T03:39:54.709Z,97417.36
2018-08-30T03:42:22.526Z,97411.19
2018-08-30T03:44:50.257Z,97415.45
2018-08-30T03:47:18.014Z,97416.35
2018-08-30T03:49:45.770Z,97416.59
2018-08-30T03:52:13.492Z,97422.34
2018-08-30T03:54:41.145Z,97417.70
2018-08-30T03:57:08.838Z,97423.69
2018-08-30T03:59:36.557Z,97425.05
2018-08-30T04:02:04.460Z,97423.91
2018-08-30T04:04:32.132Z,97428.17
2018-08-30T04:07:00.001Z,97425.26
2018-08-30T04:09:27.958Z,97426.05
2018-08-30T04:11:55.660Z,97424.13
2018-08-30T04:14:23.404Z,97425.47
2018-08-30T04:16:51.081Z,97428.17
2018-08-30T04:19:18.773Z,97430.11
2018-08-30T04:21:46.537Z,97431.45
2018-08-30T04:24:14.263Z,97431.45
2018-08-30T04:26:42.001Z,97433.92
2018-08-30T04:29:09.831Z,97433.37
2018-08-30T04:31:37.636Z,97432.81
2018-08-30T04:34:05.318Z,97433.37
2018-08-30T04:36:33.057Z,97439.33
2018-08-30T04:39:00.748Z,97443.96
2018-08-30T04:41:28.864Z,97336.02
2018-08-30T04:43:56.578Z,97440.46
2018-08-30T04:46:24.520Z,97439.66
2018-08-30T04:48:52.264Z,97443.72
2018-08-30T04:51:19.961Z,97442.36
2018-08-30T04:53:47.731Z,97440.67
2018-08-30T04:56:15.449Z,97435.05
2018-08-30T04:58:43.157Z,97440.67
2018-08-30T05:01:10.916Z,97444.73
2018-08-30T05:03:38.632Z,97441.26
2018-08-30T05:06:06.344Z,97449.58
2018-08-30T05:08:34.058Z,97454.77
2018-08-30T05:11:01.833Z,97457.47
2018-08-30T05:13:29.579Z,97452.06
2018-08-30T05:15:57.278Z,97459.38
2018-08-30T05:18:25.052Z,97458.03
2018-08-30T05:20:52.773Z,97460.73
2018-08-30T05:23:20.507Z,97472.09
2018-08-30T05:25:48.267Z,97470.19
2018-08-30T05:28:16.012Z,97474.80
2018-08-30T05:30:43.752Z,97479.43
2018-08-30T05:33:11.489Z,97483.48
2018-08-30T05:35:39.415Z,97488.09
2018-08-30T05:38:07.058Z,97492.95
2018-08-30T05:40:34.888Z,97502.16
2018-08-30T05:43:02.582Z,97504.86
2018-08-30T05:45:30.361Z,97504.86
2018-08-30T05:47:58.124Z,97506.00
2018-08-30T05:50:25.889Z,97501.95
2018-08-30T05:52:53.651Z,97504.86
2018-08-30T05:55:21.413Z,97503.51
2018-08-30T05:57:49.191Z,97510.27
2018-08-30T06:00:16.953Z,97507.69
2018-08-30T06:02:44.695Z,97512.53
2018-08-30T06:05:12.391Z,97515.45
2018-08-30T06:07:40.104Z,97511.95
2018-08-30T06:10:07.848Z,97513.55
2018-08-30T06:12:35.645Z,97517.61
2018-08-30T06:15:03.329Z,97518.16
2018-08-30T06:17:31.001Z,97521.08
2018-08-30T06:19:58.686Z,97530.31
2018-08-30T06:22:26.403Z,97533.82
2018-08-30T06:24:54.033Z,97535.72
2018-08-30T06:27:21.796Z,97540.33
2018-08-30T06:29:49.493Z,97545.19
2018-08-30T06:32:17.313Z,97557.89
2018-08-30T06:34:45.061Z,97555.99
2018-08-30T06:37:12.855Z,97561.18
2018-08-30T06:39:40.595Z,97556.33
2018-08-30T06:42:08.277Z,97558.23
2018-08-30T06:44:35.965Z,97564.44
2018-08-30T06:47:03.617Z,97571.19
2018-08-30T06:49:31.333Z,97571.98
2018-08-30T06:51:59.158Z,97570.97
2018-08-30T06:54:26.929Z,97573.67
2018-08-30T06:56:54.615Z,97574.23
2018-08-30T06:59:22.390Z,97581.20
2018-08-30T07:01:50.174Z,97579.30
2018-08-30T07:04:17.904Z,97583.35
2018-08-30T07:06:45.493Z,97585.50
2018-08-30T07:09:13.136Z,97586.61
2018-08-30T07:11:40.958Z,97595.52
2018-08-30T07:14:08.811Z,97595.52
2018-08-30T07:16:36.572Z,97601.72
2018-08-30T07:19:04.259Z,97601.72
2018-08-30T07:21:32.302Z,97602.82
2018-08-30T07:23:59.925Z,97607.13
2018-08-30T07:26:27.547Z,97610.59
2018-08-30T07:28:55.230Z,97608.48
2018-08-30T07:31:22.869Z,97609.83
2018-08-30T07:33:50.507Z,97608.48
2018-08-30T07:36:18.134Z,97609.02
2018-08-30T07:38:45.768Z,97612.53
2018-08-30T07:41:13.403Z,97613.63
2018-08-30T07:43:41.084Z,97619.03
2018-08-30T07:46:08.711Z,97629.52
2018-08-30T07:48:36.408Z,97621.19
2018-08-30T07:51:04.091Z,97631.66
2018-08-30T07:53:31.697Z,97629.30
2018-08-30T07:55:59.300Z,97634.15
2018-08-30T07:58:26.945Z,97631.66
2018-08-30T08:00:54.576Z,97634.58
2018-08-30T08:03:22.201Z,97634.58
2018-08-30T08:05:49.880Z,97640.23
2018-08-30T08:08:17.513Z,97640.79
2018-08-30T08:10:45.537Z,97642.14
2018-08-30T08:13:13.218Z,97645.06
2018-08-30T08:15:40.857Z,97649.70
2018-08-30T08:18:08.474Z,97639.44
2018-08-30T08:20:36.159Z,97642.94
2018-08-30T08:23:03.800Z,97646.19
2018-08-30T08:25:31.430Z,97654.30
2018-08-30T08:27:59.155Z,97658.58
2018-08-30T08:30:26.849Z,97663.42
2018-08-30T08:32:54.525Z,97658.02
2018-08-30T08:35:22.259Z,97661.86
2018-08-30T08:37:49.906Z,97663.20
2018-08-30T08:40:17.539Z,97663.20
2018-08-30T08:42:45.157Z,97663.42
2018-08-30T08:45:12.804Z,97662.88
2018-08-30T08:47:40.492Z,97661.19
2018-08-30T08:50:08.121Z,97663.31
2018-08-30T08:52:35.752Z,97656.34
2018-08-30T08:55:03.379Z,97659.04
2018-08-30T08:57:31.012Z,97660.61
2018-08-30T08:59:58.647Z,97657.58
2018-08-30T09:02:26.271Z,97663.56
2018-08-30T09:04:53.909Z,97657.02
2018-08-30T09:07:21.711Z,97661.08
2018-08-30T09:09:49.415Z,97666.70
2018-08-30T09:12:17.181Z,97663.44
2018-08-30T09:14:44.992Z,97660.74
2018-08-30T09:17:12.749Z,97666.37
2018-08-30T09:19:40.513Z,97667.38
2018-08-30T09:22:08.387Z,97670.09
2018-08-30T09:24:36.247Z,97671.10
2018-08-30T09:27:04.004Z,97668.62
2018-08-30T09:29:31.757Z,97668.62
2018-08-30T09:31:59.608Z,97671.69
2018-08-30T09:34:27.295Z,97675.73
2018-08-30T09:36:55.105Z,97678.45
2018-08-30T09:39:22.871Z,97680.34
2018-08-30T09:41:51.050Z,97671.69
2018-08-30T09:44:18.846Z,97672.45
2018-08-30T09:46:46.617Z,97668.41
2018-08-30T09:49:14.320Z,97674.61
2018-08-30T09:51:42.381Z,97671.91
2018-08-30T09:54:10.056Z,97672.45
2018-08-30T09:56:37.906Z,97676.51
2018-08-30T09:59:05.856Z,97683.48
2018-08-30T10:01:38.798Z,97690.24
2018-08-30T10:04:06.458Z,97684.06
2018-08-30T10:06:34.089Z,97683.27
2018-08-30T10:09:01.740Z,97681.91
2018-08-30T10:11:29.441Z,97697.80
2018-08-30T10:13:57.117Z,97693.75
2018-08-30T10:16:24.818Z,97695.65
2018-08-30T10:18:52.539Z,97699.70
2018-08-30T10:21:20.206Z,97691.95
2018-08-30T10:23:47.913Z,97689.26
2018-08-30T10:26:15.605Z,97693.31
2018-08-30T10:28:43.291Z,97694.08
2018-08-30T10:31:11.019Z,97687.91
2018-08-30T10:33:38.682Z,97689.01
2018-08-30T10:36:06.362Z,97683.85
2018-08-30T10:38:34.020Z,97700.62
2018-08-30T10:41:01.767Z,97704.67
2018-08-30T10:43:29.469Z,97701.75
2018-08-30T10:45:57.125Z,97704.45
2018-08-30T10:48:24.821Z,97711.22
2018-08-30T10:50:52.605Z,97701.50
2018-08-30T10:53:20.365Z,97697.45
2018-08-30T10:55:47.994Z,97703.44
2018-08-30T10:58:15.793Z,97707.16
2018-08-30T11:00:43.434Z,97709.61
2018-08-30T11:03:11.137Z,97706.02
2018-08-30T11:05:38.759Z,97689.01
2018-08-30T11:08:06.413Z,97701.97
2018-08-30T11:10:34.060Z,97700.84
2018-08-30T11:13:01.780Z,97691.59
2018-08-30T11:15:29.312Z,97687.54
2018-08-30T11:17:56.934Z,97690.70
2018-08-30T11:20:24.578Z,97687.34
2018-08-30T11:22:52.208Z,97692.28
2018-08-30T11:25:19.826Z,97686.66
2018-08-30T11:27:47.636Z,97689.58
2018-08-30T11:30:15.256Z,97690.05
2018-08-30T11:32:42.880Z,97684.30
2018-08-30T11:35:10.545Z,97690.27
2018-08-30T11:37:38.240Z,97696.69
2018-08-30T11:40:05.833Z,97693.98
2018-08-30T11:42:33.462Z,97702.89
2018-08-30T11:45:01.126Z,97699.64
2018-08-30T11:47:28.759Z,97696.69
2018-08-30T11:49:56.398Z,97695.00
2018-08-30T11:52:24.192Z,97697.28
2018-08-30T11:54:51.761Z,97692.56
2018-08-30T11:57:19.695Z,97689.27
2018-08-30T11:59:47.366Z,97689.73
2018-08-30T12:02:15.010Z,97685.34
2018-08-30T12:04:42.637Z,97690.75
2018-08-30T12:07:10.301Z,97688.85
2018-08-30T12:09:37.937Z,97686.03
2018-08-30T12:12:05.710Z,97692.48
2018-08-30T12:14:33.333Z,97704.16
2018-08-30T12:17:00.982Z,97697.18
2018-08-30T12:19:28.668Z,97691.44
2018-08-30T12:21:56.497Z,97699.55
2018-08-30T12:24:24.156Z,97705.13
2018-08-30T12:26:51.945Z,97709.95
2018-08-30T12:29:19.607Z,97711.18
2018-08-30T12:31:47.313Z,97708.14
2018-08-30T12:34:15.034Z,97704.33
2018-08-30T12:36:42.693Z,97708.39
2018-08-30T12:39:12.466Z,97716.03
2018-08-30T12:41:40.164Z,97717.17
2018-08-30T12:44:07.760Z,97723.59
2018-08-30T12:46:35.435Z,97722.68
2018-08-30T12:49:03.075Z,97717.61
2018-08-30T12:51:31.111Z,97722.13
2018-08-30T12:53:58.399Z,97726.87
2018-08-30T12:56:26.209Z,97725.63
2018-08-30T12:58:59.331Z,97729.36
2018-08-30T13:01:27.022Z,97731.26
2018-08-30T13:03:54.711Z,97730.92
2018-08-30T13:06:22.363Z,97724.97
2018-08-30T13:08:50.238Z,97732.06
2018-08-30T13:11:17.941Z,97728.09
2018-08-30T13:13:45.690Z,97724.83
2018-08-30T13:16:13.254Z,97722.34
2018-08-30T13:18:40.975Z,97723.95
2018-08-30T13:21:08.668Z,97720.44
2018-08-30T13:23:36.534Z,97721.45
2018-08-30T13:26:04.330Z,97733.41
2018-08-30T13:28:32.194Z,97723.95
2018-08-30T13:30:59.989Z,97725.85
2018-08-30T13:33:27.462Z,97723.15
2018-08-30T13:35:55.282Z,97728.44
2018-08-30T13:38:23.107Z,97735.20
2018-08-30T13:40:51.121Z,97726.31
2018-08-30T13:43:18.818Z,97723.83
2018-08-30T13:45:46.432Z,97731.95
2018-08-30T13:48:14.201Z,97725.40
2018-08-30T13:50:41.781Z,97733.98
2018-08-30T13:53:09.496Z,97729.92
2018-08-30T13:55:37.372Z,97728.10
2018-08-30T13:58:05.043Z,97730.81
2018-08-30T14:00:32.858Z,97725.06
2018-08-30T14:03:00.343Z,97735.33
2018-08-30T14:05:27.990Z,97740.95
2018-08-30T14:07:55.807Z,97736.13
2018-08-30T14:10:23.730Z,97737.48
2018-08-30T14:12:51.541Z,97736.34
2018-08-30T14:15:19.322Z,97736.34
2018-08-30T14:17:46.775Z,97730.94
2018-08-30T14:20:14.504Z,97729.25
2018-08-30T14:22:42.214Z,97722.70
2018-08-30T14:25:09.904Z,97720.00
2018-08-30T14:27:37.803Z,97725.88
2018-08-30T14:30:05.682Z,97717.76
2018-08-30T14:32:33.528Z,97723.50
2018-08-30T14:35:01.439Z,97727.56
2018-08-30T14:37:29.062Z,97730.27
2018-08-30T14:39:56.756Z,97735.89
2018-08-30T14:42:24.486Z,97729.94
2018-08-30T14:44:52.225Z,97733.98
2018-08-30T14:47:20.286Z,97737.25
2018-08-30T14:49:47.712Z,97740.28
2018-08-30T14:52:15.460Z,97740.07
2018-08-30T14:54:43.261Z,97739.52
2018-08-30T14:57:10.877Z,97738.60
2018-08-30T14:59:38.627Z,97740.20
2018-08-30T15:02:06.289Z,97734.79
2018-08-30T15:04:33.916Z,97734.79
2018-08-30T15:07:01.641Z,97735.01
2018-08-30T15:09:29.350Z,97735.34
2018-08-30T15:11:57.041Z,97738.05
2018-08-30T15:14:24.704Z,97738.52
2018-08-30T15:16:52.523Z,97735.01
2018-08-30T15:19:20.190Z,97735.69
2018-08-30T15:21:47.962Z,97744.36
2018-08-30T15:24:15.663Z,97741.98
2018-08-30T15:26:43.997Z,97744.69
2018-08-30T15:29:11.670Z,97746.05
2018-08-30T15:31:39.348Z,97756.09
2018-08-30T15:34:07.137Z,97756.31
2018-08-30T15:36:34.842Z,97757.45
2018-08-30T15:39:02.528Z,97753.14
2018-08-30T15:41:30.404Z,97767.47
2018-08-30T15:43:58.219Z,97765.31
2018-08-30T15:46:25.901Z,97764.77
2018-08-30T15:48:53.706Z,97782.56
2018-08-30T15:51:21.568Z,97771.53
2018-08-30T15:53:49.215Z,97778.08
2018-08-30T15:56:16.900Z,97779.18
2018-08-30T15:58:44.664Z,97775.70
2018-08-30T16:01:12.357Z,97771.31
2018-08-30T16:03:40.021Z,97769.70
2018-08-30T16:06:07.738Z,97758.89
2018-08-30T16:08:35.505Z,97762.95
2018-08-30T16:11:03.214Z,97762.95
2018-08-30T16:13:30.955Z,97762.95
2018-08-30T16:15:59.241Z,97754.83
2018-08-30T16:18:26.964Z,97752.13
2018-08-30T16:20:54.712Z,97753.81
2018-08-30T16:23:32.592Z,97752.80
2018-08-30T16:26:00.351Z,97751.23
2018-08-30T16:28:29.105Z,97754.15
2018-08-30T16:30:57.038Z,97757.77
2018-08-30T16:33:24.741Z,97749.41
2018-08-30T16:35:52.552Z,97755.06
2018-08-30T16:38:20.281Z,97750.20
2018-08-30T16:40:48.023Z,97751.89
2018-08-30T16:43:15.644Z,97749.41
2018-08-30T16:45:43.782Z,97749.41
2018-08-30T16:48:11.413Z,97742.42
2018-08-30T16:50:39.045Z,97744.91
2018-08-30T16:53:06.702Z,97748.39
2018-08-30T16:55:34.834Z,97749.74
2018-08-30T16:58:02.385Z,97748.72
2018-08-30T17:00:30.013Z,97758.77
2018-08-30T17:02:58.345Z,97756.07
2018-08-30T17:05:25.997Z,97729.30
2018-08-30T17:07:53.626Z,97757.42
2018-08-30T17:10:21.372Z,97749.86
2018-08-30T17:12:49.011Z,97753.45
2018-08-30T17:15:16.641Z,97754.80
2018-08-30T17:17:44.452Z,97755.38
2018-08-30T17:20:13.529Z,97751.33
2018-08-30T17:22:41.153Z,97746.69
2018-08-30T17:25:08.811Z,97753.23
2018-08-30T17:27:36.460Z,97748.38
2018-08-30T17:30:04.509Z,97755.72
2018-08-30T17:32:32.129Z,97750.86
2018-08-30T17:34:59.780Z,97754.37
2018-08-30T17:37:27.406Z,97753.78
2018-08-30T17:39:55.038Z,97757.16
2018-08-30T17:42:22.685Z,97757.16
2018-08-30T17:44:50.356Z,97759.31
2018-08-30T17:47:17.986Z,97761.47
2018-08-30T17:49:45.752Z,97763.15
2018-08-30T17:52:13.524Z,97754.23
2018-08-30T17:54:41.199Z,97761.00
2018-08-30T17:57:08.846Z,97766.98
2018-08-30T17:59:36.507Z,97766.41
2018-08-30T18:02:04.184Z,97771.59
2018-08-30T18:04:31.826Z,97773.50
2018-08-30T18:06:59.520Z,97785.92
2018-08-30T18:09:27.209Z,97775.44
2018-08-30T18:11:54.970Z,97780.59
2018-08-30T18:14:22.687Z,97788.95
2018-08-30T18:16:50.421Z,97785.23
2018-08-30T18:19:18.163Z,97781.17
2018-08-30T18:21:46.051Z,97785.78
2018-08-30T18:24:13.911Z,97788.70
2018-08-30T18:26:41.647Z,97786.59
2018-08-30T18:29:09.325Z,97790.39
2018-08-30T18:31:37.116Z,97791.27
2018-08-30T18:34:04.859Z,97788.57
2018-08-30T18:36:32.598Z,97789.13
2018-08-30T18:39:00.316Z,97792.63
2018-08-30T18:41:28.037Z,97798.59
2018-08-30T18:43:55.793Z,97803.45
2018-08-30T18:46:23.598Z,97799.39
2018-08-30T18:48:51.342Z,97799.72
2018-08-30T18:51:19.064Z,97804.55
2018-08-30T18:53:46.866Z,97808.38
2018-08-30T18:56:14.577Z,97811.64
2018-08-30T18:58:42.456Z,97811.64
2018-08-30T19:01:10.334Z,97818.40
2018-08-30T19:03:37.994Z,97817.84
2018-08-30T19:06:05.722Z,97811.64
2018-08-30T19:08:33.653Z,97812.22
2018-08-30T19:11:01.401Z,97823.81
2018-08-30T19:13:29.290Z,97824.39
2018-08-30T19:16:02.430Z,97828.66
2018-08-30T19:18:35.589Z,97823.59
2018-08-30T19:21:03.502Z,97823.37
2018-08-30T19:23:31.342Z,97832.03
2018-08-30T19:25:59.002Z,97831.81
2018-08-30T19:28:26.694Z,97829.88
2018-08-30T19:30:54.376Z,97833.16
2018-08-30T19:33:22.081Z,97832.14
2018-08-30T19:35:55.002Z,97829.66
2018-08-30T19:38:22.729Z,97832.14
2018-08-30T19:40:55.573Z,97832.14
2018-08-30T19:43:23.490Z,97826.73
2018-08-30T19:45:51.169Z,97830.55
2018-08-30T19:48:18.864Z,97828.42
2018-08-30T19:50:46.583Z,97834.92
2018-08-30T19:53:14.305Z,97840.34
2018-08-30T19:55:41.953Z,97843.84
2018-08-30T19:58:09.639Z,97844.39
2018-08-30T20:00:37.401Z,97847.09
2018-08-30T20:03:05.301Z,97844.72
2018-08-30T20:05:33.032Z,97848.23
2018-08-30T20:08:00.717Z,97844.72
2018-08-30T20:10:28.353Z,97849.36
2018-08-30T20:12:56.086Z,97843.70
2018-08-30T20:15:23.899Z,97845.30
2018-08-30T20:17:51.687Z,97845.30
2018-08-30T20:20:19.395Z,97845.63
2018-08-30T20:22:47.184Z,97841.58
2018-08-30T20:25:14.888Z,97842.67
2018-08-30T20:27:42.543Z,97839.42
2018-08-30T20:30:10.230Z,97838.08
2018-08-30T20:32:37.946Z,97841.91
2018-08-30T20:35:05.761Z,97843.01
2018-08-30T20:37:33.658Z,97844.03
2018-08-30T20:40:03.343Z,97839.75
2018-08-30T20:42:31.018Z,97842.45
2018-08-30T20:44:58.659Z,97843.01
2018-08-30T20:47:26.380Z,97840.30
2018-08-30T20:49:54.105Z,97839.28
2018-08-30T20:52:21.824Z,97851.70
2018-08-30T20:54:49.532Z,97841.22
2018-08-30T20:57:17.306Z,97849.33
2018-08-30T20:59:45.114Z,97845.60
2018-08-30T21:02:12.926Z,97847.72
2018-08-30T21:04:40.591Z,97842.09
2018-08-30T21:07:08.308Z,97849.41
2018-08-30T21:09:36.037Z,97846.16
2018-08-30T21:12:03.732Z,97839.17
2018-08-30T21:14:31.382Z,97839.17
2018-08-30T21:16:59.083Z,97840.27
2018-08-30T21:19:26.752Z,97838.92
2018-08-30T21:21:54.547Z,97848.97
2018-08-30T21:24:22.222Z,97839.50
2018-08-30T21:26:49.913Z,97840.86
2018-08-30T21:29:17.545Z,97843.34
2018-08-30T21:31:45.273Z,97839.28
2018-08-30T21:34:12.913Z,97843.89
2018-08-30T21:36:40.581Z,97840.38
2018-08-30T21:39:09.128Z,97839.61
2018-08-30T21:41:36.851Z,97841.73
2018-08-30T21:44:04.529Z,97841.30
2018-08-30T21:46:32.331Z,97841.52
2018-08-30T21:49:00.032Z,97839.36
2018-08-30T21:51:27.848Z,97834.53
2018-08-30T21:53:55.634Z,97835.89
2018-08-30T21:56:23.389Z,97840.49
2018-08-30T21:58:51.089Z,97838.34
2018-08-30T22:01:18.851Z,97836.44
2018-08-30T22:03:46.575Z,97837.57
2018-08-30T22:06:14.268Z,97834.86
2018-08-30T22:08:42.030Z,97840.02
2018-08-30T22:11:09.845Z,97836.55
2018-08-30T22:13:37.574Z,97842.50
2018-08-30T22:16:05.284Z,97840.02
2018-08-30T22:18:32.973Z,97834.95
2018-08-30T22:21:00.742Z,97831.69
2018-08-30T22:23:28.457Z,97831.47
2018-08-30T22:25:56.137Z,97835.27
2018-08-30T22:28:23.815Z,97829.87
2018-08-30T22:30:51.533Z,97827.97
2018-08-30T22:33:19.289Z,97823.11
2018-08-30T22:35:46.960Z,97827.97
2018-08-30T22:38:14.593Z,97824.23
2018-08-30T22:40:42.325Z,97819.97
2018-08-30T22:43:10.045Z,97818.83
2018-08-30T22:45:37.791Z,97820.73
2018-08-30T22:48:05.536Z,97824.02
2018-08-30T22:50:33.744Z,97817.81
2018-08-30T22:53:01.550Z,97826.95
2018-08-30T22:55:29.288Z,97815.91
2018-08-30T22:57:57.085Z,97811.05
2018-08-30T23:00:24.809Z,97815.11
2018-08-30T23:02:52.522Z,97810.03
2018-08-30T23:05:20.234Z,97814.64
2018-08-30T23:07:48.049Z,97811.39
2018-08-30T23:10:16.398Z,97805.18
2018-08-30T23:12:44.150Z,97806.86
2018-08-30T23:15:11.864Z,97813.06
2018-08-30T23:17:39.663Z,97811.72
2018-08-30T23:20:07.448Z,97806.09
2018-08-30T23:22:35.198Z,97808.80
2018-08-30T23:25:02.928Z,97806.09
2018-08-30T23:27:30.590Z,97804.73
2018-08-30T23:29:58.287Z,97802.81
2018-08-30T23:32:25.993Z,97797.73
2018-08-30T23:34:53.705Z,97796.96
2018-08-30T23:37:21.449Z,97795.61
2018-08-30T23:39:49.129Z,97798.31
2018-08-30T23:42:16.809Z,97798.31
2018-08-30T23:44:44.545Z,97802.11
2018-08-30T23:47:12.232Z,97801.56
2018-08-30T23:49:40.043Z,97798.86
2018-08-30T23:52:07.708Z,97794.81
2018-08-30T23:54:35.412Z,97794.59
2018-08-30T23:57:03.166Z,97795.69
2018-08-30T23:59:36.480Z,97796.48
